Time;durP1;ratioP1;P1;durP2;ratioP2;P2;SDS_P1;SDS_P2;PMS_P1;PMS_P2;Temp;Humidity;BMP_temperature;BMP_pressure;BME280_temperature;BME280_humidity;BME280_pressure;Samples;Min_cycle;Max_cycle;Signal;HPM_P1;HPM_P2
2023/03/28 00:00:03;;;;;;;9.30;5.75;;;;;;;2.89;90.76;98403.09;7351818;19;20078;-67
2023/03/28 00:02:37;;;;;;;10.18;6.30;;;;;;;2.85;90.89;98403.38;7344382;19;20022;-66
2023/03/28 00:05:02;;;;;;;8.60;6.03;;;;;;;2.85;90.90;98406.00;7341522;19;20022;-67
2023/03/28 00:07:28;;;;;;;11.60;6.60;;;;;;;2.85;91.04;98409.47;7339143;19;20473;-67
2023/03/28 00:09:52;;;;;;;16.05;6.72;;;;;;;2.85;91.01;98412.13;7339464;19;20018;-67
2023/03/28 00:12:17;;;;;;;10.52;6.00;;;;;;;2.81;91.17;98415.88;7338730;19;20022;-66
2023/03/28 00:14:42;;;;;;;13.98;6.97;;;;;;;2.78;91.21;98410.78;7338141;19;20018;-67
2023/03/28 00:17:06;;;;;;;13.20;6.75;;;;;;;2.77;91.26;98418.78;7339540;19;20350;-67
2023/03/28 00:19:31;;;;;;;9.00;6.20;;;;;;;2.76;91.19;98415.31;7338100;19;20034;-68
2023/03/28 00:21:56;;;;;;;10.63;6.18;;;;;;;2.75;91.06;98420.66;7340526;19;20054;-67
2023/03/28 00:24:21;;;;;;;10.93;6.00;;;;;;;2.72;91.17;98419.03;7343432;19;20011;-67
2023/03/28 00:26:53;;;;;;;11.35;6.07;;;;;;;2.72;91.22;98428.72;7342821;19;20011;-65
2023/03/28 00:29:19;;;;;;;13.15;6.35;;;;;;;2.70;91.25;98433.25;7347441;19;20018;-66
2023/03/28 00:31:46;;;;;;;9.15;5.75;;;;;;;2.68;91.26;98422.81;7346277;19;20021;-69
2023/03/28 00:34:11;;;;;;;10.88;5.95;;;;;;;2.63;91.39;98431.91;7350977;19;20167;-67
2023/03/28 00:36:37;;;;;;;11.02;5.65;;;;;;;2.63;91.43;98435.38;7347746;19;20015;-68
2023/03/28 00:39:05;;;;;;;10.73;6.47;;;;;;;2.63;91.46;98443.25;7344191;19;20095;-66
2023/03/28 00:41:29;;;;;;;8.93;5.30;;;;;;;2.64;91.33;98441.47;7345017;19;20026;-64
2023/03/28 00:43:54;;;;;;;10.52;6.28;;;;;;;2.62;91.27;98452.09;7345383;19;20018;-66
2023/03/28 00:46:38;;;;;;;9.88;6.28;;;;;;;2.65;91.26;98446.66;7349064;19;20039;-66
2023/03/28 00:49:12;;;;;;;11.38;5.80;;;;;;;2.58;91.12;98449.75;7349257;19;20019;-66
2023/03/28 00:51:49;;;;;;;10.02;6.20;;;;;;;2.53;91.05;98445.59;7348521;19;20015;-66
2023/03/28 00:54:18;;;;;;;9.93;5.50;;;;;;;2.52;90.95;98445.69;7348631;19;20011;-66
2023/03/28 00:56:47;;;;;;;7.93;5.25;;;;;;;2.48;91.02;98458.16;7350298;19;20090;-66
2023/03/28 00:59:18;;;;;;;10.93;6.65;;;;;;;2.44;90.74;98456.66;7345695;19;20022;-65
2023/03/28 01:01:44;;;;;;;10.43;6.10;;;;;;;2.38;90.62;98454.34;7348554;19;20010;-66
2023/03/28 01:04:09;;;;;;;9.38;5.22;;;;;;;2.34;90.68;98452.84;7346193;19;20519;-67
2023/03/28 01:06:47;;;;;;;9.07;5.95;;;;;;;2.37;90.68;98457.91;7346116;19;20434;-67
2023/03/28 01:09:17;;;;;;;12.25;6.10;;;;;;;2.32;90.56;98465.25;7343950;19;20022;-66
2023/03/28 01:11:46;;;;;;;9.82;5.35;;;;;;;2.28;90.76;98454.97;7344223;19;20032;-66
2023/03/28 01:14:18;;;;;;;11.43;6.05;;;;;;;2.28;90.74;98465.50;7341435;19;20028;-67
2023/03/28 01:16:46;;;;;;;11.93;6.75;;;;;;;2.22;90.76;98450.91;7343356;19;20039;-66
2023/03/28 01:19:50;;;;;;;10.18;6.35;;;;;;;2.29;90.71;98462.78;7341630;19;20042;-67
2023/03/28 01:22:19;;;;;;;16.13;6.07;;;;;;;2.22;90.95;98463.22;7345028;19;20022;-65
2023/03/28 01:25:03;;;;;;;10.25;5.90;;;;;;;2.24;90.85;98456.94;7346021;19;20052;-68
2023/03/28 01:27:45;;;;;;;8.73;5.50;;;;;;;2.19;90.87;98462.44;7343776;19;20021;-68
2023/03/28 01:30:41;;;;;;;9.65;5.75;;;;;;;2.16;90.83;98457.34;7343646;19;20014;-66
2023/03/28 01:33:43;;;;;;;9.23;5.45;;;;;;;2.22;90.77;98473.75;7345420;19;20015;-69
2023/03/28 01:36:35;;;;;;;7.45;4.78;;;;;;;2.24;90.88;98463.97;7344175;19;20018;-69
2023/03/28 01:39:25;;;;;;;8.93;5.70;;;;;;;2.17;90.94;98455.56;7342157;19;20022;-69
2023/03/28 01:41:58;;;;;;;10.60;6.35;;;;;;;2.15;91.05;98467.97;7342744;19;20423;-68
2023/03/28 01:44:52;;;;;;;8.32;6.10;;;;;;;2.14;90.96;98461.84;7343170;19;20070;-67
2023/03/28 01:48:30;;;;;;;9.95;6.10;;;;;;;2.12;90.93;98461.13;7344794;19;20346;-71
2023/03/28 01:51:17;;;;;;;14.65;6.40;;;;;;;2.04;90.79;98457.19;7340959;19;20483;-69
2023/03/28 01:53:49;;;;;;;11.00;5.97;;;;;;;2.01;90.86;98462.66;7341417;19;20015;-70
2023/03/28 01:56:22;;;;;;;13.57;7.40;;;;;;;1.99;90.89;98467.97;7340755;19;20022;-69
2023/03/28 01:59:14;;;;;;;15.23;6.80;;;;;;;2.01;91.07;98470.53;7338888;19;20050;-68
2023/03/28 02:02:08;;;;;;;8.35;6.22;;;;;;;1.96;91.14;98467.28;7343827;19;20010;-71
2023/03/28 02:04:37;;;;;;;12.70;7.20;;;;;;;1.96;91.04;98475.19;7340981;19;20006;-68
2023/03/28 02:07:03;;;;;;;8.45;5.72;;;;;;;1.93;91.08;98470.09;7342541;19;20420;-71
2023/03/28 02:09:35;;;;;;;12.20;7.05;;;;;;;1.91;91.07;98475.44;7349237;19;20018;-67
2023/03/28 02:12:29;;;;;;;11.30;7.25;;;;;;;1.88;91.10;98480.03;7341592;19;20011;-78
2023/03/28 02:15:10;;;;;;;10.90;6.55;;;;;;;1.82;91.24;98482.03;7345726;19;20018;-65
2023/03/28 02:18:19;;;;;;;15.60;5.85;;;;;;;1.83;91.19;98490.78;7344073;19;20018;-65
2023/03/28 02:21:00;;;;;;;11.52;6.57;;;;;;;1.79;91.26;98491.88;7345680;19;20002;-65
2023/03/28 02:23:47;;;;;;;10.55;6.65;;;;;;;1.86;91.28;98492.38;7347747;19;20014;-66
2023/03/28 02:26:53;;;;;;;11.18;7.07;;;;;;;1.84;91.26;98495.09;7345895;19;20097;-65
2023/03/28 02:29:46;;;;;;;14.85;6.40;;;;;;;1.79;91.22;98508.50;7347835;19;20498;-66
2023/03/28 02:32:32;;;;;;;10.90;6.30;;;;;;;1.76;91.17;98503.41;7346382;19;20466;-66
2023/03/28 02:34:57;;;;;;;10.98;6.47;;;;;;;1.72;91.20;98512.38;7342498;19;20050;-67
2023/03/28 02:38:00;;;;;;;12.35;7.03;;;;;;;1.74;91.23;98505.25;7342977;19;21154;-66
2023/03/28 02:40:25;;;;;;;12.80;7.32;;;;;;;1.68;91.29;98516.13;7339776;19;20036;-66
2023/03/28 02:43:08;;;;;;;13.02;6.85;;;;;;;1.71;91.31;98510.66;7341081;19;20443;-67
2023/03/28 02:45:45;;;;;;;13.35;7.38;;;;;;;1.68;91.30;98510.84;7342941;19;20019;-66
2023/03/28 02:48:35;;;;;;;11.73;6.20;;;;;;;1.69;91.20;98515.16;7339049;19;20019;-69
2023/03/28 02:51:12;;;;;;;10.57;5.82;;;;;;;1.63;91.09;98510.25;7338904;19;20138;-66
2023/03/28 02:53:58;;;;;;;12.48;6.55;;;;;;;1.64;91.13;98514.56;7339194;19;20365;-64
2023/03/28 02:56:51;;;;;;;11.70;7.45;;;;;;;1.64;91.27;98505.84;7339928;19;20029;-64
2023/03/28 02:59:48;;;;;;;8.70;6.05;;;;;;;1.56;91.16;98514.13;7342862;19;20028;-67
2023/03/28 03:02:19;;;;;;;9.55;6.20;;;;;;;1.59;91.32;98519.22;7341176;19;20018;-66
2023/03/28 03:04:44;;;;;;;19.30;7.45;;;;;;;1.54;91.11;98516.00;7342774;19;20036;-67
2023/03/28 03:07:09;;;;;;;11.38;6.15;;;;;;;1.51;91.34;98523.16;7341678;19;20011;-66
2023/03/28 03:09:36;;;;;;;11.52;7.28;;;;;;;1.54;91.24;98528.28;7343119;19;20113;-71
2023/03/28 03:12:01;;;;;;;13.00;7.70;;;;;;;1.52;91.16;98533.59;7342246;19;20014;-71
2023/03/28 03:14:27;;;;;;;10.82;6.60;;;;;;;1.53;91.27;98537.94;7342635;19;20027;-68
2023/03/28 03:17:06;;;;;;;14.25;8.02;;;;;;;1.55;91.42;98535.22;7340118;19;20021;-72
2023/03/28 03:19:31;;;;;;;13.05;6.80;;;;;;;1.59;91.30;98532.34;7342499;19;20074;-69
2023/03/28 03:21:57;;;;;;;12.55;6.90;;;;;;;1.65;91.46;98539.91;7342377;19;20013;-69
2023/03/28 03:24:22;;;;;;;12.40;6.55;;;;;;;1.65;91.42;98529.41;7342987;19;20022;-68
2023/03/28 03:26:46;;;;;;;10.32;6.32;;;;;;;1.60;91.40;98534.03;7343577;19;20082;-68
2023/03/28 03:29:17;;;;;;;13.32;6.97;;;;;;;1.66;91.28;98548.63;7344595;19;20427;-68
2023/03/28 03:31:42;;;;;;;11.88;6.93;;;;;;;1.68;91.27;98547.63;7344844;19;20024;-68
2023/03/28 03:34:25;;;;;;;11.73;6.63;;;;;;;1.77;91.20;98554.19;7342092;19;20011;-68
2023/03/28 03:36:55;;;;;;;11.65;7.13;;;;;;;1.89;91.27;98550.03;7340500;19;20026;-66
2023/03/28 03:39:21;;;;;;;10.73;6.18;;;;;;;2.05;91.18;98566.66;7338504;19;20797;-68
2023/03/28 03:41:46;;;;;;;13.43;7.75;;;;;;;2.22;91.04;98550.84;7341616;19;20804;-68
2023/03/28 03:44:11;;;;;;;11.40;7.20;;;;;;;2.41;91.00;98548.03;7343948;19;20511;-68
2023/03/28 03:46:36;;;;;;;11.20;6.78;;;;;;;2.60;90.72;98550.50;7341307;19;20503;-67
2023/03/28 03:49:01;;;;;;;10.45;7.03;;;;;;;2.82;90.70;98548.31;7339750;19;20007;-72
2023/03/28 03:51:26;;;;;;;10.75;6.20;;;;;;;3.06;90.42;98560.03;7339412;19;20427;-73
2023/03/28 03:53:53;;;;;;;12.55;6.47;;;;;;;3.29;89.91;98561.31;7340185;19;20019;-72
2023/03/28 03:56:22;;;;;;;12.88;6.35;;;;;;;3.55;89.22;98557.16;7339586;19;20014;-73
2023/03/28 03:58:53;;;;;;;12.82;6.50;;;;;;;3.81;88.46;98556.41;7338820;19;20537;-74
2023/03/28 04:01:20;;;;;;;10.20;6.25;;;;;;;4.04;87.62;98569.97;7340652;19;20014;-74
2023/03/28 04:03:46;;;;;;;8.82;5.75;;;;;;;4.25;86.50;98556.28;7343705;19;20337;-74
2023/03/28 04:06:17;;;;;;;12.63;6.57;;;;;;;4.50;85.06;98555.56;7344067;19;20411;-73
2023/03/28 04:08:42;;;;;;;12.68;7.15;;;;;;;4.77;83.75;98552.06;7340173;19;20019;-74
2023/03/28 04:11:09;;;;;;;10.60;6.28;;;;;;;4.95;82.70;98551.75;7338968;19;20018;-74
2023/03/28 04:13:38;;;;;;;12.05;6.45;;;;;;;5.27;81.44;98559.31;7340913;19;20035;-75
2023/03/28 04:16:05;;;;;;;11.68;6.15;;;;;;;5.54;80.24;98552.13;7342219;19;20021;-74
2023/03/28 04:18:39;;;;;;;12.05;6.38;;;;;;;5.84;78.85;98551.84;7341897;19;20042;-74
2023/03/28 04:21:04;;;;;;;8.77;5.82;;;;;;;6.15;77.72;98546.13;7343489;19;20015;-74
2023/03/28 04:23:42;;;;;;;12.82;6.53;;;;;;;6.48;76.82;98547.31;7351680;19;20011;-75
2023/03/28 04:26:24;;;;;;;8.93;6.10;;;;;;;6.78;75.73;98544.22;7358784;19;20026;-74
2023/03/28 04:28:55;;;;;;;9.45;5.68;;;;;;;6.99;74.94;98557.69;7357044;19;20022;-76
2023/03/28 04:31:28;;;;;;;16.45;7.55;;;;;;;7.19;73.75;98554.41;7359038;19;20011;-75
2023/03/28 04:34:24;;;;;;;9.50;5.93;;;;;;;7.42;73.52;98548.22;7354023;19;20015;-74
2023/03/28 04:37:08;;;;;;;10.60;6.13;;;;;;;7.69;72.19;98547.03;7343773;19;20485;-76
2023/03/28 04:40:00;;;;;;;10.38;5.60;;;;;;;8.03;72.02;98551.41;7340390;19;20014;-74
2023/03/28 04:42:28;;;;;;;11.18;5.85;;;;;;;8.26;70.51;98553.09;7340504;19;20014;-74
2023/03/28 04:45:14;;;;;;;10.77;6.93;;;;;;;8.63;69.69;98548.38;7338729;19;20466;-73
2023/03/28 04:47:39;;;;;;;9.55;5.85;;;;;;;8.85;68.54;98544.81;7338441;19;20042;-73
2023/03/28 04:50:08;;;;;;;10.70;6.60;;;;;;;9.09;68.28;98552.59;7339050;19;20019;-73
2023/03/28 04:52:35;;;;;;;10.00;6.53;;;;;;;9.29;67.45;98558.91;7338731;19;20018;-73
2023/03/28 04:54:59;;;;;;;8.75;6.63;;;;;;;9.44;65.63;98542.53;7338496;19;20020;-72
2023/03/28 04:57:24;;;;;;;10.73;6.90;;;;;;;9.60;65.04;98550.03;7342646;19;20026;-73
2023/03/28 04:59:54;;;;;;;13.85;6.93;;;;;;;9.67;64.34;98553.88;7338452;19;20026;-73
2023/03/28 05:02:39;;;;;;;10.95;7.13;;;;;;;9.78;64.68;98566.28;7336428;19;20035;-73
2023/03/28 05:05:06;;;;;;;9.70;6.50;;;;;;;9.79;64.70;98563.47;7336584;19;20018;-75
2023/03/28 05:07:32;;;;;;;13.57;7.57;;;;;;;9.82;64.78;98557.88;7336234;19;20041;-74
2023/03/28 05:09:57;;;;;;;12.82;7.30;;;;;;;9.91;64.35;98550.94;7337665;19;20018;-73
2023/03/28 05:12:30;;;;;;;14.77;6.45;;;;;;;10.03;63.93;98555.22;7341660;19;20026;-74
2023/03/28 05:15:00;;;;;;;13.38;6.95;;;;;;;10.27;63.73;98562.88;7348443;19;20014;-74
2023/03/28 05:17:25;;;;;;;12.95;7.60;;;;;;;10.55;63.29;98564.84;7350209;19;20014;-75
2023/03/28 05:19:55;;;;;;;8.90;6.40;;;;;;;10.92;62.19;98572.22;7358918;19;20015;-73
2023/03/28 05:22:22;;;;;;;10.93;6.18;;;;;;;11.33;61.71;98573.78;7353201;19;20014;-73
2023/03/28 05:24:47;;;;;;;14.00;7.47;;;;;;;11.66;60.85;98569.84;7344911;19;20073;-73
2023/03/28 05:27:16;;;;;;;11.75;6.57;;;;;;;11.91;60.45;98573.75;7346685;19;20015;-73
2023/03/28 05:29:41;;;;;;;9.35;5.88;;;;;;;11.99;60.35;98572.06;7349259;19;20011;-74
2023/03/28 05:32:06;;;;;;;9.85;6.63;;;;;;;11.90;60.19;98567.59;7344527;19;20019;-75
2023/03/28 05:34:33;;;;;;;10.00;5.65;;;;;;;11.77;60.09;98572.38;7345235;19;20019;-74
2023/03/28 05:37:00;;;;;;;9.00;5.70;;;;;;;11.56;60.19;98569.84;7343482;19;20300;-74
2023/03/28 05:39:34;;;;;;;7.38;4.93;;;;;;;11.38;60.48;98576.06;7341023;19;20531;-71
2023/03/28 05:42:02;;;;;;;8.57;4.78;;;;;;;11.23;60.43;98576.47;7344852;19;20014;-73
2023/03/28 05:44:26;;;;;;;8.45;5.20;;;;;;;11.21;60.48;98583.75;7345757;19;20019;-72
2023/03/28 05:47:15;;;;;;;9.80;4.80;;;;;;;11.31;60.72;98582.91;7342872;19;20014;-72
2023/03/28 05:49:40;;;;;;;11.07;5.68;;;;;;;11.39;60.28;98586.59;7349816;19;20351;-72
2023/03/28 05:52:06;;;;;;;6.55;4.88;;;;;;;11.47;59.76;98585.88;7342127;19;20019;-72
2023/03/28 05:54:30;;;;;;;11.25;5.00;;;;;;;11.50;58.96;98588.28;7342749;19;20588;-72
2023/03/28 05:56:55;;;;;;;8.45;4.80;;;;;;;11.59;58.32;98598.09;7343374;19;20343;-71
2023/03/28 05:59:25;;;;;;;8.10;4.95;;;;;;;11.83;58.28;98597.69;7339462;19;20015;-72
2023/03/28 06:01:51;;;;;;;10.90;5.07;;;;;;;12.12;57.25;98593.09;7341938;19;20087;-71
2023/03/28 06:04:20;;;;;;;6.43;3.80;;;;;;;12.29;56.67;98599.53;7341057;19;20123;-71
2023/03/28 06:06:47;;;;;;;9.32;3.78;;;;;;;12.43;56.11;98609.75;7341073;19;20025;-71
2023/03/28 06:09:15;;;;;;;8.63;4.22;;;;;;;12.44;55.68;98607.91;7343105;19;20474;-72
2023/03/28 06:11:54;;;;;;;7.80;4.50;;;;;;;12.50;55.63;98618.03;7352694;19;20014;-71
2023/03/28 06:14:20;;;;;;;8.95;3.63;;;;;;;12.52;55.11;98613.38;7341659;19;20022;-73
2023/03/28 06:16:44;;;;;;;9.05;4.00;;;;;;;12.84;54.51;98602.25;7342281;19;20367;-74
2023/03/28 06:19:10;;;;;;;9.65;3.50;;;;;;;13.25;52.33;98609.75;7339290;19;20502;-75
2023/03/28 06:21:34;;;;;;;9.10;3.35;;;;;;;13.24;51.65;98612.59;7340820;19;20010;-73
2023/03/28 06:24:05;;;;;;;2.92;2.13;;;;;;;13.14;50.67;98609.97;7340520;19;20466;-75
2023/03/28 06:26:34;;;;;;;4.45;3.20;;;;;;;13.22;50.88;98607.38;7343519;19;20517;-73
2023/03/28 06:28:59;;;;;;;5.70;2.80;;;;;;;13.59;49.94;98603.72;7344036;19;20494;-73
2023/03/28 06:31:40;;;;;;;6.50;3.67;;;;;;;13.76;49.59;98605.56;7347416;19;20527;-75
2023/03/28 06:34:05;;;;;;;3.83;2.38;;;;;;;14.15;48.89;98598.81;7344052;19;20359;-73
2023/03/28 06:36:31;;;;;;;7.72;2.58;;;;;;;14.60;48.48;98608.47;7355878;19;20074;-75
2023/03/28 06:38:57;;;;;;;7.53;3.47;;;;;;;14.99;47.41;98613.34;7352034;19;20019;-75
2023/03/28 06:41:23;;;;;;;8.43;3.63;;;;;;;14.96;46.59;98605.59;7352735;19;20018;-74
2023/03/28 06:43:48;;;;;;;7.10;3.67;;;;;;;15.13;46.03;98607.31;7355672;19;20221;-74
2023/03/28 06:46:35;;;;;;;8.23;2.90;;;;;;;15.55;45.14;98609.97;7350176;19;20030;-74
2023/03/28 06:49:00;;;;;;;6.20;3.55;;;;;;;15.64;43.34;98603.59;7347040;19;20038;-73
2023/03/28 06:51:25;;;;;;;8.50;3.88;;;;;;;15.82;43.60;98614.19;7350770;19;20021;-75
2023/03/28 06:53:51;;;;;;;5.07;3.65;;;;;;;16.01;43.18;98616.56;7348485;19;20018;-72
2023/03/28 06:56:21;;;;;;;7.10;4.22;;;;;;;16.21;43.02;98612.50;7353752;19;20342;-73
2023/03/28 06:58:46;;;;;;;8.23;4.05;;;;;;;16.20;43.26;98612.66;7348236;19;20010;-75
2023/03/28 07:01:13;;;;;;;8.85;4.00;;;;;;;16.40;42.66;98607.75;7347296;19;20019;-72
2023/03/28 07:03:45;;;;;;;8.90;5.00;;;;;;;16.49;42.92;98610.22;7343629;19;20601;-74
2023/03/28 07:06:15;;;;;;;8.85;4.68;;;;;;;17.12;42.21;98606.66;7344054;19;20014;-74
2023/03/28 07:08:42;;;;;;;8.80;3.65;;;;;;;17.21;40.85;98612.84;7342518;19;20462;-73
2023/03/28 07:11:07;;;;;;;7.72;4.55;;;;;;;16.94;41.48;98625.75;7345985;19;20030;-73
2023/03/28 07:13:32;;;;;;;9.40;4.68;;;;;;;16.59;41.81;98631.59;7350827;19;20006;-75
2023/03/28 07:16:12;;;;;;;9.40;4.65;;;;;;;16.18;42.66;98626.28;7352845;19;20350;-75
2023/03/28 07:18:37;;;;;;;9.35;3.85;;;;;;;15.71;42.31;98630.63;7354188;19;20003;-74
2023/03/28 07:21:10;;;;;;;9.40;4.50;;;;;;;15.25;43.33;98636.41;7351926;19;20041;-72
2023/03/28 07:23:35;;;;;;;4.50;3.58;;;;;;;14.33;43.35;98627.41;7352496;19;20018;-73
2023/03/28 07:26:01;;;;;;;5.40;3.70;;;;;;;13.45;45.20;98632.72;7347568;19;20050;-73
2023/03/28 07:28:26;;;;;;;11.32;4.45;;;;;;;12.87;47.06;98632.19;7346985;19;20014;-73
2023/03/28 07:30:54;;;;;;;8.07;4.45;;;;;;;12.52;48.00;98634.78;7344070;19;20031;-74
2023/03/28 07:33:19;;;;;;;9.98;5.45;;;;;;;12.08;49.12;98641.63;7343379;19;20027;-73
2023/03/28 07:35:44;;;;;;;7.85;3.88;;;;;;;11.80;49.36;98646.03;7341973;19;20347;-72
2023/03/28 07:38:12;;;;;;;8.50;4.47;;;;;;;11.71;49.77;98634.34;7341346;19;20478;-70
2023/03/28 07:40:48;;;;;;;11.13;3.88;;;;;;;11.61;49.64;98638.84;7340767;19;20014;-71
2023/03/28 07:43:15;;;;;;;6.90;3.75;;;;;;;11.33;50.33;98642.31;7340246;19;20015;-73
2023/03/28 07:45:43;;;;;;;11.00;3.90;;;;;;;11.35;50.94;98638.53;7341542;19;20022;-75
2023/03/28 07:48:09;;;;;;;9.23;4.60;;;;;;;11.52;49.85;98642.34;7340429;19;20015;-76
2023/03/28 07:50:37;;;;;;;8.98;4.55;;;;;;;11.65;49.58;98643.75;7341629;19;20018;-70
2023/03/28 07:53:02;;;;;;;6.43;3.67;;;;;;;11.67;49.12;98632.94;7340111;19;20006;-70
2023/03/28 07:55:35;;;;;;;10.38;4.18;;;;;;;12.12;48.57;98643.03;7341011;19;20031;-69
2023/03/28 07:58:02;;;;;;;9.70;4.07;;;;;;;12.47;46.66;98645.91;7341287;19;20042;-76
2023/03/28 08:00:30;;;;;;;8.35;3.95;;;;;;;12.87;45.80;98642.06;7344085;19;20014;-75
2023/03/28 08:03:17;;;;;;;6.00;3.55;;;;;;;13.43;45.82;98644.59;7351472;19;20022;-76
2023/03/28 08:05:50;;;;;;;5.60;3.38;;;;;;;13.90;44.75;98634.44;7349761;19;20022;-76
2023/03/28 08:08:20;;;;;;;5.00;3.28;;;;;;;14.01;42.31;98639.56;7343468;19;20039;-74
2023/03/28 08:10:57;;;;;;;9.60;4.35;;;;;;;14.10;44.03;98633.28;7348040;19;20050;-74
2023/03/28 08:13:21;;;;;;;6.78;4.10;;;;;;;14.16;43.98;98643.38;7348241;19;20015;-74
2023/03/28 08:15:53;;;;;;;12.65;5.75;;;;;;;14.23;44.43;98645.41;7346343;19;20018;-77
2023/03/28 08:18:20;;;;;;;8.00;4.28;;;;;;;14.28;44.31;98652.00;7344300;19;20022;-73
2023/03/28 08:20:47;;;;;;;12.35;4.65;;;;;;;14.14;44.04;98640.00;7344385;19;20017;-74
2023/03/28 08:23:14;;;;;;;15.65;5.40;;;;;;;14.06;43.61;98636.44;7345312;19;20013;-73
2023/03/28 08:25:38;;;;;;;6.22;4.35;;;;;;;13.81;43.97;98640.75;7344697;19;20022;-72
2023/03/28 08:28:05;;;;;;;12.77;5.18;;;;;;;13.96;44.14;98652.59;7343632;19;20026;-73
2023/03/28 08:30:31;;;;;;;10.05;4.68;;;;;;;13.73;43.73;98654.06;7340480;19;20307;-73
2023/03/28 08:33:03;;;;;;;8.65;5.03;;;;;;;13.19;43.89;98653.19;7342215;19;20019;-71
2023/03/28 08:35:28;;;;;;;13.35;7.28;;;;;;;12.67;45.75;98646.66;7341018;19;20074;-75
2023/03/28 08:37:58;;;;;;;11.10;4.97;;;;;;;12.26;46.46;98631.91;7337889;19;20030;-70
2023/03/28 08:40:26;;;;;;;12.60;6.25;;;;;;;12.01;46.84;98641.38;7338874;19;20587;-71
2023/03/28 08:43:31;;;;;;;9.95;5.78;;;;;;;12.01;48.06;98638.69;7339467;19;20017;-70
2023/03/28 08:46:00;;;;;;;11.32;5.28;;;;;;;11.69;48.42;98633.63;7338941;19;20131;-74
2023/03/28 08:48:30;;;;;;;9.02;5.28;;;;;;;11.66;48.65;98628.56;7344253;19;20029;-74
2023/03/28 08:51:34;;;;;;;9.32;5.32;;;;;;;12.10;48.63;98626.28;7348160;19;20033;-70
2023/03/28 08:54:14;;;;;;;7.50;4.18;;;;;;;13.00;47.84;98627.34;7346782;19;20042;-73
2023/03/28 08:56:49;;;;;;;8.77;4.82;;;;;;;14.45;45.53;98621.63;7348010;19;20028;-72
2023/03/28 08:59:18;;;;;;;7.45;4.30;;;;;;;15.99;42.21;98623.94;7348085;19;20026;-71
2023/03/28 09:01:43;;;;;;;9.77;4.50;;;;;;;16.87;38.88;98630.16;7347286;19;20027;-72
2023/03/28 09:04:33;;;;;;;11.00;4.72;;;;;;;17.95;39.17;98627.53;7350743;19;20022;-71
2023/03/28 09:07:34;;;;;;;6.10;3.88;;;;;;;18.84;36.25;98626.69;7348803;19;20018;-74
2023/03/28 09:10:35;;;;;;;7.95;4.05;;;;;;;19.31;36.73;98625.38;7345087;19;20035;-73
2023/03/28 09:13:21;;;;;;;9.43;4.82;;;;;;;19.82;33.99;98615.38;7349614;19;20018;-70
2023/03/28 09:16:05;;;;;;;8.05;4.82;;;;;;;19.70;33.89;98612.34;7344524;19;20093;-73
2023/03/28 09:18:46;;;;;;;13.18;4.68;;;;;;;19.60;33.34;98614.53;7343567;19;20022;-73
2023/03/28 09:21:22;;;;;;;6.60;4.15;;;;;;;19.09;34.03;98622.63;7344015;19;20342;-72
2023/03/28 09:24:00;;;;;;;9.18;5.28;;;;;;;17.59;35.51;98620.03;7345121;19;20010;-72
2023/03/28 09:26:55;;;;;;;8.18;4.68;;;;;;;17.12;37.19;98616.59;7346103;19;20014;-73
2023/03/28 09:29:24;;;;;;;9.98;4.57;;;;;;;16.86;36.16;98630.34;7345252;19;20022;-71
2023/03/28 09:32:11;;;;;;;6.18;4.43;;;;;;;16.56;36.02;98623.84;7346475;19;20019;-73
2023/03/28 09:34:46;;;;;;;5.30;4.15;;;;;;;17.09;36.79;98622.34;7344171;19;20022;-74
2023/03/28 09:37:21;;;;;;;10.00;4.80;;;;;;;18.23;34.94;98623.25;7344194;19;20022;-73
2023/03/28 09:39:51;;;;;;;10.88;5.45;;;;;;;18.72;35.18;98622.78;7341529;19;20082;-72
2023/03/28 09:42:41;;;;;;;8.65;5.35;;;;;;;17.96;36.41;98624.66;7344365;19;20037;-72
2023/03/28 09:45:48;;;;;;;11.80;5.45;;;;;;;17.53;36.41;98633.38;7347750;19;20022;-74
2023/03/28 09:48:38;;;;;;;9.32;5.80;;;;;;;18.58;35.16;98631.69;7343607;19;20596;-73
2023/03/28 09:51:11;;;;;;;9.80;5.63;;;;;;;19.04;33.88;98624.25;7346937;19;20007;-72
2023/03/28 09:53:36;;;;;;;16.95;5.88;;;;;;;20.28;32.64;98646.41;7345162;19;20031;-73
2023/03/28 09:56:12;;;;;;;17.17;6.72;;;;;;;21.94;31.51;98621.78;7356126;19;20026;-74
2023/03/28 09:58:58;;;;;;;13.55;7.03;;;;;;;22.93;30.63;98626.38;7342295;19;20026;-72
2023/03/28 10:01:39;;;;;;;17.45;5.40;;;;;;;23.05;29.63;98620.06;7343766;19;20014;-71
2023/03/28 10:04:39;;;;;;;13.55;7.32;;;;;;;22.89;29.97;98617.84;7344784;19;20501;-74
2023/03/28 10:07:43;;;;;;;12.23;7.28;;;;;;;22.62;30.15;98619.72;7342880;19;20011;-72
2023/03/28 10:10:40;;;;;;;20.27;7.15;;;;;;;21.62;29.63;98619.88;7344544;19;20382;-72
2023/03/28 10:13:10;;;;;;;12.80;6.70;;;;;;;20.69;30.20;98628.59;7340609;19;20015;-71
2023/03/28 10:15:45;;;;;;;19.92;7.72;;;;;;;19.43;32.48;98621.16;7340928;19;20018;-73
2023/03/28 10:18:30;;;;;;;10.95;6.38;;;;;;;18.65;33.14;98625.38;7343206;19;20026;-71
2023/03/28 10:21:25;;;;;;;16.05;6.78;;;;;;;18.10;34.50;98623.00;7358743;19;20014;-72
2023/03/28 10:24:06;;;;;;;13.30;7.10;;;;;;;16.99;36.09;98642.25;7355658;19;20015;-72
2023/03/28 10:26:32;;;;;;;9.10;5.45;;;;;;;16.59;36.62;98631.59;7349465;19;20113;-70
2023/03/28 10:29:04;;;;;;;11.20;6.15;;;;;;;15.73;37.87;98632.16;7345867;19;20774;-71
2023/03/28 10:31:31;;;;;;;8.68;5.82;;;;;;;14.59;39.22;98633.63;7348731;19;20025;-73
2023/03/28 10:34:28;;;;;;;8.40;5.35;;;;;;;14.11;41.40;98636.78;7346887;19;20025;-72
2023/03/28 10:36:56;;;;;;;10.85;4.82;;;;;;;13.91;40.74;98633.47;7339807;19;20017;-71
2023/03/28 10:39:29;;;;;;;12.63;5.35;;;;;;;13.04;42.03;98647.47;7339714;19;20018;-71
2023/03/28 10:42:14;;;;;;;9.82;4.43;;;;;;;12.59;42.52;98647.41;7338817;19;20019;-67
2023/03/28 10:45:36;;;;;;;10.48;4.85;;;;;;;12.36;43.34;98651.41;7340741;19;20034;-67
2023/03/28 10:48:15;;;;;;;7.78;5.00;;;;;;;11.72;44.30;98633.34;7343071;19;20031;-67
2023/03/28 10:50:47;;;;;;;8.60;5.38;;;;;;;11.36;44.60;98628.72;7338857;19;20428;-65
2023/03/28 10:53:30;;;;;;;6.32;4.40;;;;;;;11.16;44.73;98620.69;7342223;19;20015;-67
2023/03/28 10:56:29;;;;;;;5.80;2.30;;;;;;;11.41;44.24;98629.97;7341419;19;20025;-67
2023/03/28 10:59:03;;;;;;;7.85;4.50;;;;;;;10.90;45.29;98622.19;7343442;19;20032;-68
2023/03/28 11:01:38;;;;;;;9.27;4.93;;;;;;;10.71;46.09;98620.31;7346557;19;20014;-68
2023/03/28 11:04:16;;;;;;;6.80;4.63;;;;;;;10.62;46.60;98622.91;7346015;19;20014;-70
2023/03/28 11:06:46;;;;;;;6.75;4.63;;;;;;;10.30;47.46;98631.91;7341643;19;20014;-70
2023/03/28 11:09:45;;;;;;;6.53;4.78;;;;;;;10.70;46.79;98633.75;7340923;19;20014;-71
2023/03/28 11:13:13;;;;;;;9.65;5.05;;;;;;;10.25;47.88;98626.13;7339365;19;20110;-68
2023/03/28 11:15:57;;;;;;;7.72;4.63;;;;;;;10.03;48.91;98635.09;7338722;19;20006;-69
2023/03/28 11:18:57;;;;;;;7.57;4.43;;;;;;;10.06;47.72;98628.63;7338921;19;20094;-77
2023/03/28 11:21:41;;;;;;;6.88;4.47;;;;;;;10.29;47.09;98629.34;7340886;19;20022;-69
2023/03/28 11:24:23;;;;;;;6.38;4.13;;;;;;;9.95;47.57;98631.38;7337977;19;20094;-70
2023/03/28 11:27:23;;;;;;;6.00;3.97;;;;;;;9.82;47.59;98616.44;7339858;19;20113;-69
2023/03/28 11:29:53;;;;;;;;;;;;;;;9.83;47.89;98630.59;7338744;19;20014;-70
2023/03/28 11:32:40;;;;;;;5.28;3.25;;;;;;;9.75;47.71;98622.41;7342590;19;19944;-70
2023/03/28 11:35:25;;;;;;;6.03;3.45;;;;;;;9.69;47.64;98621.13;7338380;19;20014;-66
2023/03/28 11:38:03;;;;;;;6.18;3.88;;;;;;;9.53;47.93;98622.53;7336673;19;20011;-65
2023/03/28 11:40:41;;;;;;;6.13;3.58;;;;;;;9.54;47.90;98617.09;7337789;19;20015;-69
2023/03/28 11:43:14;;;;;;;4.93;3.38;;;;;;;9.50;48.13;98610.31;7342459;19;20033;-69
2023/03/28 11:45:50;;;;;;;3.45;2.67;;;;;;;9.62;47.89;98614.63;7340162;19;20047;-69
2023/03/28 11:49:02;;;;;;;6.20;3.80;;;;;;;9.48;48.57;98606.94;7352155;19;20036;-70
2023/03/28 11:51:32;;;;;;;6.65;3.70;;;;;;;9.53;48.22;98604.75;7340603;19;20029;-69
2023/03/28 11:54:08;;;;;;;15.38;4.10;;;;;;;9.25;48.93;98600.91;7341075;19;20130;-67
2023/03/28 11:57:01;;;;;;;6.88;3.60;;;;;;;9.28;48.91;98599.78;7342583;19;20023;-68
2023/03/28 12:00:04;;;;;;;8.50;3.70;;;;;;;9.20;49.33;98589.78;7340892;19;20108;-69
2023/03/28 12:02:46;;;;;;;7.78;4.25;;;;;;;9.22;49.37;98595.81;7341931;19;20034;-69
2023/03/28 12:05:22;;;;;;;7.72;3.70;;;;;;;9.38;49.44;98608.69;7344607;19;20019;-68
2023/03/28 12:08:09;;;;;;;6.65;3.78;;;;;;;9.40;49.48;98593.44;7341100;19;20015;-71
2023/03/28 12:10:37;;;;;;;6.38;3.28;;;;;;;9.46;49.19;98620.41;7340930;19;20017;-68